Time;durP1;ratioP1;P1;durP2;ratioP2;P2;SDS_P1;SDS_P2;PMS_P1;PMS_P2;Temp;Humidity;BMP_temperature;BMP_pressure;BME280_temperature;BME280_humidity;BME280_pressure;Samples;Min_cycle;Max_cycle;Signal;HPM_P1;HPM_P2
2022/09/11 00:01:32;;;;;;;;;4.75;4.00;;;;;-144.76;100.00;60493.00;5094573;27;44850;-81
2022/09/11 00:03:58;;;;;;;;;6.25;6.25;;;;;-144.76;100.00;60493.00;5094629;27;44857;-81
2022/09/11 00:06:25;;;;;;;;;6.25;6.00;;;;;-144.76;100.00;60493.00;5095124;27;45131;-80
2022/09/11 00:08:59;;;;;;;;;6.75;6.75;;;;;-144.76;100.00;60493.00;5094855;27;45201;-81
2022/09/11 00:11:27;;;;;;;;;7.75;7.50;;;;;-144.76;100.00;60493.00;5094097;27;45376;-81
2022/09/11 00:13:54;;;;;;;;;6.00;6.00;;;;;-144.76;100.00;60493.00;5093173;27;44965;-81
2022/09/11 00:16:21;;;;;;;;;7.50;7.00;;;;;-144.76;100.00;60493.00;5094583;28;45655;-81
2022/09/11 00:18:47;;;;;;;;;7.00;7.00;;;;;-144.76;100.00;60493.00;5094635;27;45517;-81
2022/09/11 00:21:14;;;;;;;;;6.00;6.00;;;;;-144.76;100.00;60493.00;5094594;28;45284;-81
2022/09/11 00:23:39;;;;;;;;;6.00;5.00;;;;;-144.76;100.00;60493.00;5093980;27;45317;-80
2022/09/11 00:26:05;;;;;;;;;6.00;6.00;;;;;-144.76;100.00;60493.00;5093476;27;56620;-81
2022/09/11 00:28:30;;;;;;;;;5.75;5.50;;;;;-144.76;100.00;60493.00;5092498;27;44989;-80
2022/09/11 00:31:17;;;;;;;;;6.00;6.00;;;;;-144.76;100.00;60493.00;5093604;28;54363;-81
2022/09/11 00:33:43;;;;;;;;;5.50;5.50;;;;;-144.76;100.00;60493.00;5093715;28;45218;-81
2022/09/11 00:36:23;;;;;;;;;7.00;6.50;;;;;-144.76;100.00;60493.00;5094101;28;45809;-81
2022/09/11 00:38:49;;;;;;;;;7.50;6.75;;;;;-144.76;100.00;60493.00;5094401;28;45438;-80
2022/09/11 00:41:18;;;;;;;;;5.50;5.50;;;;;-144.76;100.00;60493.00;5094260;27;45006;-80
2022/09/11 00:43:55;;;;;;;;;7.50;7.25;;;;;-144.76;100.00;60493.00;5092010;27;45060;-81
2022/09/11 00:46:25;;;;;;;;;8.00;8.00;;;;;-144.76;100.00;60493.00;5092688;28;48158;-81
2022/09/11 00:48:51;;;;;;;;;5.50;5.50;;;;;-144.76;100.00;60493.00;5093748;27;45459;-80
2022/09/11 00:51:25;;;;;;;;;6.00;6.00;;;;;-144.76;100.00;60493.00;5093972;27;45192;-80
2022/09/11 00:53:53;;;;;;;;;7.25;6.00;;;;;-144.76;100.00;60493.00;5093375;27;45257;-81
2022/09/11 00:56:22;;;;;;;;;8.00;7.00;;;;;-144.76;100.00;60493.00;5092971;27;45096;-81
2022/09/11 00:58:49;;;;;;;;;7.00;7.00;;;;;-144.76;100.00;60493.00;5091499;28;45502;-81
2022/09/11 01:01:15;;;;;;;;;7.00;6.25;;;;;-144.76;100.00;60493.00;5093925;27;45003;-80
2022/09/11 01:03:41;;;;;;;;;6.75;6.75;;;;;-144.76;100.00;60493.00;5093885;27;45127;-81
2022/09/11 01:06:09;;;;;;;;;8.00;7.25;;;;;-144.76;100.00;60493.00;5094080;27;45530;-80
2022/09/11 01:08:34;;;;;;;;;7.75;7.75;;;;;-144.76;100.00;60493.00;5093618;27;45493;-81
2022/09/11 01:11:06;;;;;;;;;8.00;7.00;;;;;-144.76;100.00;60493.00;5093051;28;50273;-81
2022/09/11 01:13:51;;;;;;;;;7.50;7.00;;;;;-144.76;100.00;60493.00;5091250;27;45241;-82
2022/09/11 01:16:22;;;;;;;;;6.00;6.00;;;;;-144.76;100.00;60493.00;5094060;27;45495;-81
2022/09/11 01:19:04;;;;;;;;;6.50;6.50;;;;;-144.76;100.00;60493.00;5093427;27;45464;-81
2022/09/11 01:21:51;;;;;;;;;8.00;7.25;;;;;-144.76;100.00;60493.00;5094249;28;45105;-81
2022/09/11 01:24:39;;;;;;;;;7.75;7.50;;;;;-144.76;100.00;60493.00;5092760;27;45040;-81
2022/09/11 01:27:27;;;;;;;;;7.25;7.00;;;;;-144.76;100.00;60493.00;5088264;27;45853;-81
2022/09/11 01:30:01;;;;;;;;;7.50;7.50;;;;;-144.76;100.00;60493.00;5093499;28;45277;-80
2022/09/11 01:32:48;;;;;;;;;7.25;7.00;;;;;-144.76;100.00;60493.00;5092244;28;45014;-80
2022/09/11 01:35:48;;;;;;;;;7.75;7.50;;;;;-144.76;100.00;60493.00;5092122;28;45273;-80
2022/09/11 01:38:41;;;;;;;;;8.75;8.50;;;;;-144.76;100.00;60493.00;5108250;27;47674;-81
2022/09/11 01:41:14;;;;;;;;;7.25;7.25;;;;;-144.76;100.00;60493.00;5092921;27;45167;-81
2022/09/11 01:43:50;;;;;;;;;8.50;8.25;;;;;-144.76;100.00;60493.00;5091542;27;44952;-81
2022/09/11 01:46:21;;;;;;;;;7.75;7.75;;;;;-144.76;100.00;60493.00;5093327;28;44975;-81
2022/09/11 01:48:52;;;;;;;;;7.25;7.00;;;;;-144.76;100.00;60493.00;5093195;27;45298;-81
2022/09/11 01:51:28;;;;;;;;;7.25;7.00;;;;;-144.76;100.00;60493.00;5093071;27;45198;-81
2022/09/11 01:53:58;;;;;;;;;7.00;6.00;;;;;-144.76;100.00;60493.00;5093207;27;44977;-81
2022/09/11 01:56:31;;;;;;;;;8.25;7.75;;;;;-144.76;100.00;60493.00;5092138;27;45139;-81
2022/09/11 01:59:02;;;;;;;;;7.50;7.50;;;;;-144.76;100.00;60493.00;5092806;28;45535;-81
2022/09/11 02:01:31;;;;;;;;;7.75;7.75;;;;;-144.76;100.00;60493.00;5092464;27;45138;-80
2022/09/11 02:04:06;;;;;;;;;7.25;7.00;;;;;-144.76;100.00;60493.00;5093003;27;44916;-81
2022/09/11 02:06:39;;;;;;;;;7.00;7.00;;;;;-144.76;100.00;60493.00;5092686;27;44995;-81
2022/09/11 02:09:10;;;;;;;;;8.00;8.00;;;;;-144.76;100.00;60493.00;5092742;27;45259;-81
2022/09/11 02:11:40;;;;;;;;;9.25;7.50;;;;;-144.76;100.00;60493.00;5090443;27;45589;-81
2022/09/11 02:14:30;;;;;;;;;7.25;7.00;;;;;-144.76;100.00;60493.00;5092651;28;45057;-80
2022/09/11 02:17:05;;;;;;;;;9.75;8.75;;;;;-144.76;100.00;60493.00;5092322;28;44962;-81
2022/09/11 02:19:31;;;;;;;;;8.50;8.25;;;;;-144.76;100.00;60493.00;5092740;27;44985;-81
2022/09/11 02:21:57;;;;;;;;;8.25;8.00;;;;;-144.76;100.00;60493.00;5092593;28;44988;-81
2022/09/11 02:24:23;;;;;;;;;6.25;6.25;;;;;-144.76;100.00;60493.00;5092309;27;44941;-81
2022/09/11 02:26:57;;;;;;;;;7.00;7.00;;;;;-144.76;100.00;60493.00;5091474;27;45120;-81
2022/09/11 02:29:23;;;;;;;;;7.00;7.00;;;;;-144.76;100.00;60493.00;5108160;27;46305;-81
2022/09/11 02:31:51;;;;;;;;;6.50;6.50;;;;;-144.76;100.00;60493.00;5092138;27;45672;-81
2022/09/11 02:34:20;;;;;;;;;7.25;7.00;;;;;-144.76;100.00;60493.00;5092618;28;45142;-81
2022/09/11 02:36:58;;;;;;;;;7.00;6.25;;;;;-144.76;100.00;60493.00;5092257;28;44910;-80
2022/09/11 02:40:03;;;;;;;;;8.25;7.25;;;;;-144.76;100.00;60493.00;5092068;27;45755;-81
2022/09/11 02:42:40;;;;;;;;;7.00;7.00;;;;;-144.76;100.00;60493.00;5089110;28;45471;-81
2022/09/11 02:45:13;;;;;;;;;7.00;6.50;;;;;-144.76;100.00;60493.00;5092542;27;44904;-81
2022/09/11 02:47:59;;;;;;;;;7.00;7.00;;;;;-144.76;100.00;60493.00;5092151;27;45214;-81
2022/09/11 02:50:46;;;;;;;;;7.25;7.00;;;;;-144.76;100.00;60493.00;5091887;27;45073;-80
2022/09/11 02:53:28;;;;;;;;;6.00;6.00;;;;;-144.76;100.00;60493.00;5091865;27;45681;-81
2022/09/11 02:56:02;;;;;;;;;8.50;8.50;;;;;-144.76;100.00;60493.00;5092016;27;45133;-78
2022/09/11 02:58:38;;;;;;;;;10.00;10.00;;;;;-144.76;100.00;60493.00;5089506;27;44937;-80
2022/09/11 03:01:07;;;;;;;;;15.00;12.25;;;;;-144.76;100.00;60493.00;5091120;27;45674;-81
2022/09/11 03:03:40;;;;;;;;;18.50;17.00;;;;;-144.76;100.00;60493.00;5091846;27;45104;-81
2022/09/11 03:06:09;;;;;;;;;28.25;26.00;;;;;-144.76;100.00;60493.00;5091837;28;44989;-81
2022/09/11 03:08:35;;;;;;;;;36.50;33.00;;;;;-144.76;100.00;60493.00;5091927;27;45050;-81
2022/09/11 03:11:00;;;;;;;;;45.67;36.00;;;;;-144.76;100.00;60493.00;5091337;27;45031;-82
2022/09/11 03:13:25;;;;;;;;;46.50;39.75;;;;;-144.76;100.00;60493.00;5090773;27;45008;-81
2022/09/11 03:15:51;;;;;;;;;50.50;41.75;;;;;-144.76;100.00;60493.00;5091475;27;45255;-81
2022/09/11 03:18:16;;;;;;;;;54.00;42.67;;;;;-144.76;100.00;60493.00;5091238;27;44935;-81
2022/09/11 03:20:46;;;;;;;;;52.75;44.00;;;;;-144.76;100.00;60493.00;5091937;27;45161;-81
2022/09/11 03:23:12;;;;;;;;;53.00;41.75;;;;;-144.76;100.00;60493.00;5091100;27;45085;-81
2022/09/11 03:25:39;;;;;;;;;48.00;40.50;;;;;-144.76;100.00;60493.00;5091379;27;45111;-81
2022/09/11 03:28:04;;;;;;;;;50.00;41.00;;;;;-144.76;100.00;60493.00;5088496;27;45041;-81
2022/09/11 03:30:31;;;;;;;;;51.00;43.00;;;;;-144.76;100.00;60493.00;5091834;27;45152;-81
2022/09/11 03:32:57;;;;;;;;;50.50;40.75;;;;;-144.76;100.00;60493.00;5091359;27;45085;-81
2022/09/11 03:35:23;;;;;;;;;52.00;42.25;;;;;-144.76;100.00;60493.00;5107732;27;45050;-81
2022/09/11 03:37:49;;;;;;;;;58.75;45.25;;;;;-144.76;100.00;60493.00;5091212;27;45216;-81
2022/09/11 03:40:14;;;;;;;;;52.00;43.25;;;;;-144.76;100.00;60493.00;5091163;27;45577;-80
2022/09/11 03:42:39;;;;;;;;;49.25;41.50;;;;;-144.76;100.00;60493.00;5089405;27;45474;-81
2022/09/11 03:45:05;;;;;;;;;51.25;42.00;;;;;-144.76;100.00;60493.00;5091274;27;44989;-82
2022/09/11 03:47:30;;;;;;;;;51.75;42.00;;;;;-144.76;100.00;60493.00;5106965;27;44942;-82
2022/09/11 03:49:58;;;;;;;;;50.67;41.33;;;;;-144.76;100.00;60493.00;5091138;28;55351;-81
2022/09/11 03:52:24;;;;;;;;;48.00;38.75;;;;;-144.76;100.00;60493.00;5091341;27;45529;-81
2022/09/11 03:54:49;;;;;;;;;48.50;40.25;;;;;-144.76;100.00;60493.00;5089193;28;44882;-81
2022/09/11 03:57:14;;;;;;;;;48.33;37.67;;;;;-144.76;100.00;60493.00;5088918;28;53957;-81
2022/09/11 03:59:40;;;;;;;;;46.75;39.25;;;;;-144.76;100.00;60493.00;5090888;27;45118;-80
2022/09/11 04:02:05;;;;;;;;;56.75;43.25;;;;;-144.76;100.00;60493.00;5106497;27;45997;-81
2022/09/11 04:04:31;;;;;;;;;49.75;40.75;;;;;-144.76;100.00;60493.00;5091617;27;45265;-80
2022/09/11 04:06:57;;;;;;;;;49.50;40.25;;;;;-144.76;100.00;60493.00;5091361;27;45583;-81
2022/09/11 04:09:23;;;;;;;;;48.75;40.50;;;;;-144.76;100.00;60493.00;5090733;28;44984;-81
2022/09/11 04:11:48;;;;;;;;;50.50;39.75;;;;;-144.76;100.00;60493.00;5087500;27;45420;-81
2022/09/11 04:14:13;;;;;;;;;45.50;38.00;;;;;-144.76;100.00;60493.00;5091249;27;44952;-81
2022/09/11 04:16:39;;;;;;;;;48.00;40.50;;;;;-144.76;100.00;60493.00;5090107;27;45222;-81
2022/09/11 04:19:04;;;;;;;;;45.75;38.75;;;;;-144.76;100.00;60493.00;5090063;27;44998;-81
2022/09/11 04:21:30;;;;;;;;;46.00;37.50;;;;;-144.76;100.00;60493.00;5091153;27;45348;-82
2022/09/11 04:23:59;;;;;;;;;41.75;36.00;;;;;-144.76;100.00;60493.00;5091045;27;45123;-82
2022/09/11 04:26:27;;;;;;;;;43.00;37.00;;;;;-144.76;100.00;60493.00;5105158;27;45201;-82
2022/09/11 04:28:52;;;;;;;;;40.25;35.25;;;;;-144.76;100.00;60493.00;5091494;27;46161;-81
2022/09/11 04:31:20;;;;;;;;;47.50;39.50;;;;;-144.76;100.00;60493.00;5094285;28;44831;-82
2022/09/11 04:33:46;;;;;;;;;47.00;38.50;;;;;-144.76;100.00;60493.00;5109752;27;45139;-81
2022/09/11 04:36:16;;;;;;;;;46.75;36.75;;;;;-144.76;100.00;60493.00;5094231;27;44976;-80
2022/09/11 04:38:43;;;;;;;;;35.75;31.50;;;;;-144.76;100.00;60493.00;5094540;27;45063;-80
2022/09/11 04:41:08;;;;;;;;;46.50;37.00;;;;;-144.76;100.00;60493.00;5093721;27;45238;-81
2022/09/11 04:43:36;;;;;;;;;42.75;37.25;;;;;-144.76;100.00;60493.00;5092494;27;45217;-81
2022/09/11 04:46:06;;;;;;;;;43.00;36.50;;;;;-144.76;100.00;60493.00;5094375;28;44870;-81
2022/09/11 04:48:32;;;;;;;;;38.75;33.50;;;;;-144.76;100.00;60493.00;5093889;27;45173;-81
2022/09/11 04:51:03;;;;;;;;;37.00;31.00;;;;;-144.76;100.00;60493.00;5094374;27;44909;-81
2022/09/11 04:53:30;;;;;;;;;37.50;33.50;;;;;-144.76;100.00;60493.00;5094113;27;45045;-82
2022/09/11 04:56:07;;;;;;;;;42.50;36.75;;;;;-144.76;100.00;60493.00;5093557;27;45107;-81
2022/09/11 04:58:33;;;;;;;;;42.25;34.75;;;;;-144.76;100.00;60493.00;5091391;27;45357;-82
2022/09/11 05:00:58;;;;;;;;;39.50;33.75;;;;;-144.76;100.00;60493.00;5093982;28;45107;-80
2022/09/11 05:03:24;;;;;;;;;41.00;36.50;;;;;-144.76;100.00;60493.00;5093759;27;45037;-81
2022/09/11 05:05:49;;;;;;;;;32.00;30.75;;;;;-144.76;100.00;60493.00;5093672;27;45065;-81
2022/09/11 05:08:17;;;;;;;;;36.67;32.00;;;;;-144.76;100.00;60493.00;5093442;27;51171;-81
2022/09/11 05:10:43;;;;;;;;;35.25;31.25;;;;;-144.76;100.00;60493.00;5092377;28;45516;-82
2022/09/11 05:13:08;;;;;;;;;38.50;34.00;;;;;-144.76;100.00;60493.00;5091739;27;45166;-81
2022/09/11 05:15:33;;;;;;;;;33.67;30.33;;;;;-144.76;100.00;60493.00;5093366;27;44886;-81
2022/09/11 05:17:59;;;;;;;;;22.33;21.67;;;;;-144.76;100.00;60493.00;5092462;28;72197;-81
2022/09/11 05:20:24;;;;;;;;;27.00;25.67;;;;;-144.76;100.00;60493.00;5093396;27;54985;-81
2022/09/11 05:22:50;;;;;;;;;21.50;21.00;;;;;-144.76;100.00;60493.00;5093295;27;44977;-82
2022/09/11 05:25:17;;;;;;;;;18.00;16.00;;;;;-144.76;100.00;60493.00;5093273;27;45087;-82
2022/09/11 05:27:42;;;;;;;;;18.50;18.00;;;;;-144.76;100.00;60493.00;5092036;27;45152;-81
2022/09/11 05:30:09;;;;;;;;;19.00;18.00;;;;;-144.76;100.00;60493.00;5093313;27;44963;-82
2022/09/11 05:32:34;;;;;;;;;16.75;15.25;;;;;-144.76;100.00;60493.00;5093469;27;45103;-81
2022/09/11 05:34:59;;;;;;;;;17.50;17.00;;;;;-144.76;100.00;60493.00;5093642;27;45139;-81
2022/09/11 05:37:24;;;;;;;;;15.00;14.00;;;;;-144.76;100.00;60493.00;5092512;28;67476;-82
2022/09/11 05:39:50;;;;;;;;;14.00;13.33;;;;;-144.76;100.00;60493.00;5091871;27;53154;-81
2022/09/11 05:42:16;;;;;;;;;13.00;12.00;;;;;-144.76;100.00;60493.00;5091533;27;45186;-81
2022/09/11 05:44:42;;;;;;;;;13.00;13.00;;;;;-144.76;100.00;60493.00;5090617;28;45020;-82
2022/09/11 05:47:08;;;;;;;;;13.00;12.75;;;;;-144.76;100.00;60493.00;5092683;27;45924;-81
2022/09/11 05:49:33;;;;;;;;;10.50;9.75;;;;;-144.76;100.00;60493.00;5093217;27;45029;-81
2022/09/11 05:51:58;;;;;;;;;9.75;9.50;;;;;-144.76;100.00;60493.00;5093316;27;44948;-82
2022/09/11 05:54:24;;;;;;;;;9.00;8.25;;;;;-144.76;100.00;60493.00;5091404;27;44952;-81
2022/09/11 05:56:50;;;;;;;;;8.50;8.00;;;;;-144.76;100.00;60493.00;5090794;28;45730;-81
2022/09/11 05:59:15;;;;;;;;;9.00;9.00;;;;;-144.76;100.00;60493.00;5091455;28;65064;-81
2022/09/11 06:01:41;;;;;;;;;10.00;9.75;;;;;-144.76;100.00;60493.00;5092849;27;44992;-81
2022/09/11 06:04:11;;;;;;;;;9.00;9.00;;;;;-144.76;100.00;60493.00;5092773;27;45071;-81
2022/09/11 06:06:36;;;;;;;;;9.00;9.00;;;;;-144.76;100.00;60493.00;5106057;27;47600;-82
2022/09/11 06:09:03;;;;;;;;;8.25;8.25;;;;;-144.76;100.00;60493.00;5091463;28;45516;-81
2022/09/11 06:11:29;;;;;;;;;9.50;9.50;;;;;-144.76;100.00;60493.00;5091467;27;44885;-81
2022/09/11 06:13:55;;;;;;;;;9.50;9.00;;;;;-144.76;100.00;60493.00;5091969;28;45289;-81
2022/09/11 06:16:22;;;;;;;;;6.75;6.50;;;;;-144.76;100.00;60493.00;5092797;27;45734;-81
2022/09/11 06:18:49;;;;;;;;;9.00;8.75;;;;;-144.76;100.00;60493.00;5092384;28;45541;-82
2022/09/11 06:21:19;;;;;;;;;11.25;10.25;;;;;-144.76;100.00;60493.00;5092741;28;44980;-81
2022/09/11 06:23:49;;;;;;;;;11.00;11.00;;;;;-144.76;100.00;60493.00;5092428;27;44969;-81
2022/09/11 06:26:17;;;;;;;;;12.00;11.00;;;;;-144.76;100.00;60493.00;5092073;28;45202;-82
2022/09/11 06:28:42;;;;;;;;;12.25;11.50;;;;;-144.76;100.00;60493.00;5091349;28;45550;-81
2022/09/11 06:31:18;;;;;;;;;14.00;12.00;;;;;-144.76;100.00;60493.00;5108362;27;44982;-84
2022/09/11 06:33:44;;;;;;;;;12.50;12.00;;;;;-144.76;100.00;60493.00;5090972;28;44997;-82
2022/09/11 06:36:13;;;;;;;;;11.25;11.25;;;;;-144.76;100.00;60493.00;5108329;27;47828;-81
2022/09/11 06:38:38;;;;;;;;;12.25;12.00;;;;;-144.76;100.00;60493.00;5090346;28;45396;-81
2022/09/11 06:41:09;;;;;;;;;11.25;11.00;;;;;-144.76;100.00;60493.00;5092010;27;45201;-81
2022/09/11 06:43:35;;;;;;;;;11.00;11.00;;;;;-144.76;100.00;60493.00;5092127;27;44966;-81
2022/09/11 06:46:11;;;;;;;;;11.67;11.33;;;;;-144.76;100.00;60493.00;5091860;27;55776;-81
2022/09/11 06:48:38;;;;;;;;;11.00;10.00;;;;;-144.76;100.00;60493.00;5091048;27;45098;-82
2022/09/11 06:51:10;;;;;;;;;12.50;12.50;;;;;-144.76;100.00;60493.00;5091318;27;45067;-81
2022/09/11 06:53:36;;;;;;;;;12.75;12.00;;;;;-144.76;100.00;60493.00;5092572;27;44894;-82
2022/09/11 06:56:03;;;;;;;;;13.25;11.75;;;;;-144.76;100.00;60493.00;5091856;27;45030;-81
2022/09/11 06:58:29;;;;;;;;;13.00;13.00;;;;;-144.76;100.00;60493.00;5090150;27;45629;-82
2022/09/11 07:01:00;;;;;;;;;10.50;10.50;;;;;-144.76;100.00;60493.00;5092343;27;45465;-82
2022/09/11 07:03:25;;;;;;;;;10.00;10.00;;;;;-144.76;100.00;60493.00;5090150;27;45412;-81
2022/09/11 07:05:50;;;;;;;;;13.00;11.75;;;;;-144.76;100.00;60493.00;5090407;27;45659;-82
2022/09/11 07:08:16;;;;;;;;;17.00;16.00;;;;;-144.76;100.00;60493.00;5091132;28;65646;-82
2022/09/11 07:10:41;;;;;;;;;21.00;18.00;;;;;-144.76;100.00;60493.00;5091868;27;45289;-82
2022/09/11 07:13:06;;;;;;;;;23.75;23.00;;;;;-144.76;100.00;60493.00;5090050;27;45241;-82
2022/09/11 07:15:32;;;;;;;;;22.33;21.00;;;;;-144.76;100.00;60493.00;5091245;28;62180;-81
2022/09/11 07:17:57;;;;;;;;;23.75;23.00;;;;;-144.76;100.00;60493.00;5091436;27;45204;-81
2022/09/11 07:20:23;;;;;;;;;24.50;24.50;;;;;-144.76;100.00;60493.00;5091299;27;54178;-81
2022/09/11 07:22:48;;;;;;;;;27.25;26.00;;;;;-144.76;100.00;60493.00;5091503;27;44882;-81
2022/09/11 07:25:14;;;;;;;;;28.25;26.00;;;;;-144.76;100.00;60493.00;5091475;27;45139;-81
2022/09/11 07:27:40;;;;;;;;;28.75;28.00;;;;;-144.76;100.00;60493.00;5088405;27;45191;-81
2022/09/11 07:30:06;;;;;;;;;32.25;27.00;;;;;-144.76;100.00;60493.00;5091656;27;45077;-81
2022/09/11 07:32:31;;;;;;;;;34.75;31.75;;;;;-144.76;100.00;60493.00;5091811;27;45022;-82
2022/09/11 07:34:57;;;;;;;;;34.50;31.75;;;;;-144.76;100.00;60493.00;5091522;27;44987;-82
2022/09/11 07:37:22;;;;;;;;;38.33;34.33;;;;;-144.76;100.00;60493.00;5090820;27;61785;-81
2022/09/11 07:39:47;;;;;;;;;42.67;36.00;;;;;-144.76;100.00;60493.00;5090520;28;56688;-82
2022/09/11 07:42:13;;;;;;;;;46.00;36.33;;;;;-144.76;100.00;60493.00;5088794;28;54446;-82
2022/09/11 07:44:38;;;;;;;;;45.00;38.33;;;;;-144.76;100.00;60493.00;5090651;27;63918;-82
2022/09/11 07:47:04;;;;;;;;;45.67;37.33;;;;;-144.76;100.00;60493.00;5091198;27;56013;-82
2022/09/11 07:49:29;;;;;;;;;47.25;38.50;;;;;-144.76;100.00;60493.00;5091615;27;45047;-82
2022/09/11 07:51:55;;;;;;;;;48.33;39.67;;;;;-144.76;100.00;60493.00;5090715;27;57243;-82
2022/09/11 07:54:20;;;;;;;;;46.25;37.75;;;;;-144.76;100.00;60493.00;5090924;27;45165;-82
2022/09/11 07:56:46;;;;;;;;;46.75;38.25;;;;;-144.76;100.00;60493.00;5104626;27;45082;-82
2022/09/11 07:59:12;;;;;;;;;35.25;33.00;;;;;-144.76;100.00;60493.00;5091431;27;45174;-81
2022/09/11 08:01:38;;;;;;;;;35.00;31.75;;;;;-144.76;100.00;60493.00;5090472;27;44835;-82
2022/09/11 08:04:06;;;;;;;;;44.50;36.00;;;;;-144.76;100.00;60493.00;5094893;27;44986;-82
2022/09/11 08:06:35;;;;;;;;;43.00;33.00;;;;;-144.76;100.00;60493.00;5094959;27;45474;-81
2022/09/11 08:09:04;;;;;;;;;43.00;35.00;;;;;-144.76;100.00;60493.00;5095177;28;45171;-82
2022/09/11 08:11:34;;;;;;;;;43.25;36.50;;;;;-144.76;100.00;60493.00;5093367;27;44980;-82
2022/09/11 08:14:02;;;;;;;;;46.75;35.50;;;;;-144.76;100.00;60493.00;5094795;27;45304;-82
2022/09/11 08:16:28;;;;;;;;;48.50;39.00;;;;;-144.76;100.00;60493.00;5094429;27;45119;-82
2022/09/11 08:18:54;;;;;;;;;46.00;38.25;;;;;-144.76;100.00;60493.00;5094451;27;45022;-82
2022/09/11 08:21:21;;;;;;;;;43.00;35.50;;;;;-144.76;100.00;60493.00;5094779;28;45076;-82
2022/09/11 08:23:47;;;;;;;;;36.50;32.25;;;;;-144.76;100.00;60493.00;5094601;28;45169;-82
2022/09/11 08:26:20;;;;;;;;;48.75;40.00;;;;;-144.76;100.00;60493.00;5094104;28;45671;-83
2022/09/11 08:28:49;;;;;;;;;35.75;31.75;;;;;-144.76;100.00;60493.00;5093689;27;45123;-83
2022/09/11 08:31:15;;;;;;;;;39.75;33.50;;;;;-144.76;100.00;60493.00;5094393;27;45052;-81
2022/09/11 08:33:40;;;;;;;;;35.00;30.25;;;;;-144.76;100.00;60493.00;5091604;28;47484;-82
2022/09/11 08:36:09;;;;;;;;;32.67;29.33;;;;;-144.76;100.00;60493.00;5094565;27;46954;-82
2022/09/11 08:38:36;;;;;;;;;32.00;27.50;;;;;-144.76;100.00;60493.00;5110209;27;45060;-82
2022/09/11 08:41:55;;;;;;;;;27.00;25.75;;;;;-144.76;100.00;60493.00;5094456;27;44978;-82
2022/09/11 08:44:29;;;;;;;;;32.50;30.00;;;;;-144.76;100.00;60493.00;5091966;28;45324;-82
2022/09/11 08:47:05;;;;;;;;;30.25;26.75;;;;;-144.76;100.00;60493.00;5093341;27;45102;-82
2022/09/11 08:49:37;;;;;;;;;33.25;31.25;;;;;-144.76;100.00;60493.00;5110064;27;45138;-81
2022/09/11 08:52:04;;;;;;;;;33.50;31.25;;;;;-144.76;100.00;60493.00;5094012;27;45182;-81
2022/09/11 08:54:38;;;;;;;;;29.25;27.00;;;;;-144.76;100.00;60493.00;5093578;27;45584;-80
2022/09/11 08:57:25;;;;;;;;;34.25;30.00;;;;;-144.76;100.00;60493.00;5107781;27;45444;-81
2022/09/11 09:00:18;;;;;;;;;31.50;29.00;;;;;-144.76;100.00;60493.00;5093960;27;45040;-81
2022/09/11 09:03:29;;;;;;;;;31.75;29.00;;;;;-144.76;100.00;60493.00;5093502;28;45087;-81
2022/09/11 09:06:08;;;;;;;;;33.75;30.75;;;;;-144.76;100.00;60493.00;5093534;28;45648;-80
2022/09/11 09:08:48;;;;;;;;;30.75;29.00;;;;;-144.76;100.00;60493.00;5094381;27;45702;-81
2022/09/11 09:11:37;;;;;;;;;32.25;28.50;;;;;-144.76;100.00;60493.00;5093705;27;45054;-80
2022/09/11 09:14:24;;;;;;;;;30.25;28.50;;;;;-144.76;100.00;60493.00;5091517;27;45273;-81
2022/09/11 09:17:16;;;;;;;;;35.25;31.75;;;;;-144.76;100.00;60493.00;5092625;27;45258;-81
2022/09/11 09:19:48;;;;;;;;;29.75;28.00;;;;;-144.76;100.00;60493.00;5094033;27;45521;-81
2022/09/11 09:22:42;;;;;;;;;33.75;31.75;;;;;-144.76;100.00;60493.00;5092089;28;44996;-81
2022/09/11 09:25:14;;;;;;;;;33.25;30.50;;;;;-144.76;100.00;60493.00;5093900;27;45075;-80
2022/09/11 09:27:46;;;;;;;;;27.50;22.75;;;;;-144.76;100.00;60493.00;5090721;27;45276;-80
2022/09/11 09:30:26;;;;;;;;;28.75;27.50;;;;;-144.76;100.00;60493.00;5093050;27;45626;-81
2022/09/11 09:33:17;;;;;;;;;24.00;23.00;;;;;-144.76;100.00;60493.00;5092010;28;45040;-81
2022/09/11 09:35:44;;;;;;;;;23.25;21.75;;;;;-144.76;100.00;60493.00;5093488;27;45202;-81
2022/09/11 09:38:19;;;;;;;;;20.75;20.50;;;;;-144.76;100.00;60493.00;5093045;27;45123;-81
2022/09/11 09:41:03;;;;;;;;;21.25;19.75;;;;;-144.76;100.00;60493.00;5093509;28;45412;-81
2022/09/11 09:43:34;;;;;;;;;20.50;20.50;;;;;-144.76;100.00;60493.00;5090979;27;45434;-80
2022/09/11 09:46:14;;;;;;;;;22.75;20.75;;;;;-144.76;100.00;60493.00;5093198;27;44921;-81
2022/09/11 09:48:39;;;;;;;;;19.75;19.75;;;;;-144.76;100.00;60493.00;5093068;27;45125;-80
2022/09/11 09:51:09;;;;;;;;;21.00;19.75;;;;;-144.76;100.00;60493.00;5093106;28;45284;-81
2022/09/11 09:53:42;;;;;;;;;19.50;19.50;;;;;-144.76;100.00;60493.00;5091407;27;45090;-81
2022/09/11 09:56:15;;;;;;;;;19.25;18.75;;;;;-144.76;100.00;60493.00;5092950;27;45147;-81
2022/09/11 09:58:57;;;;;;;;;21.00;20.00;;;;;-144.76;100.00;60493.00;5090773;27;46135;-81
2022/09/11 10:01:38;;;;;;;;;21.50;21.50;;;;;-144.76;100.00;60493.00;5092885;28;45126;-81
2022/09/11 10:04:25;;;;;;;;;18.75;18.75;;;;;-144.76;100.00;60493.00;5092483;27;45099;-80
2022/09/11 10:07:09;;;;;;;;;20.25;19.75;;;;;-144.76;100.00;60493.00;5093012;28;45214;-81
2022/09/11 10:09:35;;;;;;;;;27.75;23.50;;;;;-144.76;100.00;60493.00;5092980;27;45214;-81
2022/09/11 10:12:15;;;;;;;;;19.25;19.00;;;;;-144.76;100.00;60493.00;5090665;27;45619;-81
2022/09/11 10:14:55;;;;;;;;;20.75;19.25;;;;;-144.76;100.00;60493.00;5092769;27;44985;-81
2022/09/11 10:17:32;;;;;;;;;23.50;23.00;;;;;-144.76;100.00;60493.00;5092519;27;45167;-81
2022/09/11 10:20:22;;;;;;;;;16.50;16.25;;;;;-144.76;100.00;60493.00;5092774;27;45220;-81
2022/09/11 10:22:49;;;;;;;;;16.25;15.50;;;;;-144.76;100.00;60493.00;5092252;28;45197;-81
2022/09/11 10:25:25;;;;;;;;;15.00;14.00;;;;;-144.76;100.00;60493.00;5091664;28;45028;-81
2022/09/11 10:28:02;;;;;;;;;14.75;13.50;;;;;-144.76;100.00;60493.00;5090905;27;44991;-81
2022/09/11 10:30:36;;;;;;;;;13.75;13.50;;;;;-144.76;100.00;60493.00;5092183;27;45161;-81
2022/09/11 10:33:12;;;;;;;;;15.25;14.00;;;;;-144.76;100.00;60493.00;5092267;28;45194;-81
2022/09/11 10:35:38;;;;;;;;;16.25;16.00;;;;;-144.76;100.00;60493.00;5092852;27;44942;-81
2022/09/11 10:38:09;;;;;;;;;16.25;15.00;;;;;-144.76;100.00;60493.00;5092609;27;45212;-81
2022/09/11 10:40:35;;;;;;;;;14.00;14.00;;;;;-144.76;100.00;60493.00;5091647;27;45405;-81
2022/09/11 10:43:00;;;;;;;;;16.00;16.00;;;;;-144.76;100.00;60493.00;5090442;28;45169;-81
2022/09/11 10:45:25;;;;;;;;;17.50;16.00;;;;;-144.76;100.00;60493.00;5092489;27;45223;-81
2022/09/11 10:47:51;;;;;;;;;14.25;13.25;;;;;-144.76;100.00;60493.00;5091970;27;44988;-81
2022/09/11 10:50:16;;;;;;;;;13.00;13.00;;;;;-144.76;100.00;60493.00;5092276;27;45352;-81
2022/09/11 10:53:16;;;;;;;;;12.50;12.00;;;;;-144.76;100.00;60493.00;5091969;27;44998;-81
2022/09/11 10:55:56;;;;;;;;;9.75;9.00;;;;;-144.76;100.00;60493.00;5108161;27;45010;-80
2022/09/11 10:58:30;;;;;;;;;9.25;9.25;;;;;-144.76;100.00;60493.00;5090603;27;45362;-81
2022/09/11 11:00:56;;;;;;;;;9.25;8.50;;;;;-144.76;100.00;60493.00;5092307;27;45633;-81
2022/09/11 11:03:27;;;;;;;;;9.75;9.75;;;;;-144.76;100.00;60493.00;5090688;28;45194;-81
2022/09/11 11:06:14;;;;;;;;;14.50;14.50;;;;;-144.76;100.00;60493.00;5091832;27;45000;-81
2022/09/11 11:09:16;;;;;;;;;13.25;12.75;;;;;-144.76;100.00;60493.00;5092492;27;45239;-81
2022/09/11 11:12:11;;;;;;;;;13.75;13.00;;;;;-144.76;100.00;60493.00;5090129;27;45106;-81
2022/09/11 11:14:55;;;;;;;;;6.00;6.00;;;;;-144.76;100.00;60493.00;5072253;27;45667;-81
2022/09/11 11:17:49;;;;;;;;;11.25;10.25;;;;;-144.76;100.00;60493.00;5107316;27;44978;-80